sensor_id;sensor_type;location;lat;lon;timestamp;P1;durP1;ratioP1;P2;durP2;ratioP2
35496;SDS011;21609;49.298;6.844;2023-04-24T00:01:40;0.60;;;0.60;;
35496;SDS011;21609;49.298;6.844;2023-04-24T00:04:07;0.40;;;0.40;;
35496;SDS011;21609;49.298;6.844;2023-04-24T00:06:35;0.57;;;0.52;;
35496;SDS011;21609;49.298;6.844;2023-04-24T00:09:07;0.75;;;0.60;;
35496;SDS011;21609;49.298;6.844;2023-04-24T00:11:35;0.70;;;0.65;;
35496;SDS011;21609;49.298;6.844;2023-04-24T00:14:01;0.45;;;0.45;;
35496;SDS011;21609;49.298;6.844;2023-04-24T00:16:27;0.52;;;0.52;;
35496;SDS011;21609;49.298;6.844;2023-04-24T00:18:53;0.60;;;0.60;;
35496;SDS011;21609;49.298;6.844;2023-04-24T00:21:18;0.63;;;0.60;;
35496;SDS011;21609;49.298;6.844;2023-04-24T00:23:45;0.43;;;0.40;;
35496;SDS011;21609;49.298;6.844;2023-04-24T00:26:11;1.83;;;0.57;;
35496;SDS011;21609;49.298;6.844;2023-04-24T00:28:36;0.40;;;0.40;;
35496;SDS011;21609;49.298;6.844;2023-04-24T00:31:02;0.60;;;0.60;;
35496;SDS011;21609;49.298;6.844;2023-04-24T00:33:27;0.50;;;0.50;;
35496;SDS011;21609;49.298;6.844;2023-04-24T00:35:53;0.85;;;0.52;;
35496;SDS011;21609;49.298;6.844;2023-04-24T00:38:19;0.70;;;0.60;;
35496;SDS011;21609;49.298;6.844;2023-04-24T00:40:44;0.60;;;0.50;;
35496;SDS011;21609;49.298;6.844;2023-04-24T00:43:10;0.68;;;0.47;;
35496;SDS011;21609;49.298;6.844;2023-04-24T00:45:36;0.60;;;0.60;;
35496;SDS011;21609;49.298;6.844;2023-04-24T00:48:02;0.57;;;0.50;;
35496;SDS011;21609;49.298;6.844;2023-04-24T00:50:28;0.50;;;0.50;;
35496;SDS011;21609;49.298;6.844;2023-04-24T00:52:55;0.60;;;0.40;;
35496;SDS011;21609;49.298;6.844;2023-04-24T00:55:21;1.70;;;0.50;;
35496;SDS011;21609;49.298;6.844;2023-04-24T00:57:47;0.90;;;0.30;;
35496;SDS011;21609;49.298;6.844;2023-04-24T01:00:14;0.60;;;0.40;;
35496;SDS011;21609;49.298;6.844;2023-04-24T01:02:41;1.30;;;0.63;;
35496;SDS011;21609;49.298;6.844;2023-04-24T01:05:10;0.77;;;0.40;;
35496;SDS011;21609;49.298;6.844;2023-04-24T01:07:40;0.30;;;0.30;;
35496;SDS011;21609;49.298;6.844;2023-04-24T01:10:10;0.88;;;0.63;;
35496;SDS011;21609;49.298;6.844;2023-04-24T01:12:36;1.52;;;0.40;;
35496;SDS011;21609;49.298;6.844;2023-04-24T01:15:02;0.40;;;0.40;;
35496;SDS011;21609;49.298;6.844;2023-04-24T01:17:28;0.60;;;0.50;;
35496;SDS011;21609;49.298;6.844;2023-04-24T01:19:54;0.32;;;0.32;;
35496;SDS011;21609;49.298;6.844;2023-04-24T01:22:21;0.43;;;0.40;;
35496;SDS011;21609;49.298;6.844;2023-04-24T01:24:47;0.57;;;0.57;;
35496;SDS011;21609;49.298;6.844;2023-04-24T01:27:13;0.47;;;0.45;;
35496;SDS011;21609;49.298;6.844;2023-04-24T01:29:39;0.65;;;0.55;;
35496;SDS011;21609;49.298;6.844;2023-04-24T01:32:05;0.45;;;0.45;;
35496;SDS011;21609;49.298;6.844;2023-04-24T01:34:31;0.60;;;0.60;;
35496;SDS011;21609;49.298;6.844;2023-04-24T01:36:57;0.40;;;0.40;;
35496;SDS011;21609;49.298;6.844;2023-04-24T01:39:23;0.65;;;0.43;;
35496;SDS011;21609;49.298;6.844;2023-04-24T01:41:50;0.38;;;0.38;;
35496;SDS011;21609;49.298;6.844;2023-04-24T01:44:17;0.50;;;0.50;;
35496;SDS011;21609;49.298;6.844;2023-04-24T01:46:43;8.50;;;0.40;;
35496;SDS011;21609;49.298;6.844;2023-04-24T01:49:08;0.73;;;0.40;;
35496;SDS011;21609;49.298;6.844;2023-04-24T01:51:34;0.28;;;0.28;;
35496;SDS011;21609;49.298;6.844;2023-04-24T01:54:00;0.50;;;0.47;;
35496;SDS011;21609;49.298;6.844;2023-04-24T01:56:25;1.10;;;0.60;;
35496;SDS011;21609;49.298;6.844;2023-04-24T01:58:54;0.73;;;0.73;;
35496;SDS011;21609;49.298;6.844;2023-04-24T02:01:21;0.65;;;0.45;;
35496;SDS011;21609;49.298;6.844;2023-04-24T02:03:49;0.40;;;0.40;;
35496;SDS011;21609;49.298;6.844;2023-04-24T02:06:14;0.30;;;0.30;;
35496;SDS011;21609;49.298;6.844;2023-04-24T02:08:40;0.50;;;0.50;;
35496;SDS011;21609;49.298;6.844;2023-04-24T02:11:05;0.88;;;0.60;;
35496;SDS011;21609;49.298;6.844;2023-04-24T02:13:31;0.40;;;0.40;;
35496;SDS011;21609;49.298;6.844;2023-04-24T02:15:58;0.55;;;0.40;;
35496;SDS011;21609;49.298;6.844;2023-04-24T02:18:23;0.40;;;0.40;;
35496;SDS011;21609;49.298;6.844;2023-04-24T02:20:49;0.28;;;0.28;;
35496;SDS011;21609;49.298;6.844;2023-04-24T02:23:15;1.50;;;0.40;;
35496;SDS011;21609;49.298;6.844;2023-04-24T02:25:40;0.50;;;0.50;;
35496;SDS011;21609;49.298;6.844;2023-04-24T02:28:06;0.50;;;0.50;;
35496;SDS011;21609;49.298;6.844;2023-04-24T02:30:32;0.50;;;0.40;;
35496;SDS011;21609;49.298;6.844;2023-04-24T02:32:57;0.57;;;0.35;;
35496;SDS011;21609;49.298;6.844;2023-04-24T02:35:23;1.00;;;0.50;;
35496;SDS011;21609;49.298;6.844;2023-04-24T02:37:48;0.40;;;0.40;;
35496;SDS011;21609;49.298;6.844;2023-04-24T02:40:14;0.30;;;0.30;;
35496;SDS011;21609;49.298;6.844;2023-04-24T02:42:39;0.40;;;0.40;;
35496;SDS011;21609;49.298;6.844;2023-04-24T02:45:05;0.32;;;0.32;;
35496;SDS011;21609;49.298;6.844;2023-04-24T02:47:31;0.32;;;0.30;;
35496;SDS011;21609;49.298;6.844;2023-04-24T02:49:57;0.30;;;0.30;;
35496;SDS011;21609;49.298;6.844;2023-04-24T02:52:22;0.40;;;0.40;;
35496;SDS011;21609;49.298;6.844;2023-04-24T02:54:48;0.30;;;0.30;;
35496;SDS011;21609;49.298;6.844;2023-04-24T02:57:13;0.93;;;0.40;;
35496;SDS011;21609;49.298;6.844;2023-04-24T02:59:39;0.75;;;0.57;;
35496;SDS011;21609;49.298;6.844;2023-04-24T03:02:05;0.40;;;0.40;;
35496;SDS011;21609;49.298;6.844;2023-04-24T03:04:31;0.45;;;0.40;;
35496;SDS011;21609;49.298;6.844;2023-04-24T03:06:57;0.32;;;0.32;;
35496;SDS011;21609;49.298;6.844;2023-04-24T03:09:22;0.40;;;0.38;;
35496;SDS011;21609;49.298;6.844;2023-04-24T03:11:48;0.40;;;0.40;;
35496;SDS011;21609;49.298;6.844;2023-04-24T03:14:15;1.08;;;0.50;;
35496;SDS011;21609;49.298;6.844;2023-04-24T03:16:41;0.43;;;0.43;;
35496;SDS011;21609;49.298;6.844;2023-04-24T03:19:06;0.43;;;0.40;;
35496;SDS011;21609;49.298;6.844;2023-04-24T03:21:32;0.30;;;0.30;;
35496;SDS011;21609;49.298;6.844;2023-04-24T03:23:58;0.50;;;0.50;;
35496;SDS011;21609;49.298;6.844;2023-04-24T03:26:23;0.35;;;0.35;;
35496;SDS011;21609;49.298;6.844;2023-04-24T03:28:49;0.32;;;0.32;;
35496;SDS011;21609;49.298;6.844;2023-04-24T03:31:15;0.50;;;0.50;;
35496;SDS011;21609;49.298;6.844;2023-04-24T03:33:41;0.30;;;0.30;;
35496;SDS011;21609;49.298;6.844;2023-04-24T03:36:07;0.50;;;0.50;;
35496;SDS011;21609;49.298;6.844;2023-04-24T03:38:32;0.45;;;0.45;;
35496;SDS011;21609;49.298;6.844;2023-04-24T03:40:58;0.40;;;0.40;;
35496;SDS011;21609;49.298;6.844;2023-04-24T03:43:23;0.30;;;0.30;;
35496;SDS011;21609;49.298;6.844;2023-04-24T03:45:49;0.65;;;0.30;;
35496;SDS011;21609;49.298;6.844;2023-04-24T03:48:14;0.30;;;0.30;;
35496;SDS011;21609;49.298;6.844;2023-04-24T03:50:40;0.55;;;0.52;;
35496;SDS011;21609;49.298;6.844;2023-04-24T03:53:05;0.30;;;0.30;;
35496;SDS011;21609;49.298;6.844;2023-04-24T03:55:31;0.52;;;0.40;;
35496;SDS011;21609;49.298;6.844;2023-04-24T03:57:56;0.50;;;0.50;;
35496;SDS011;21609;49.298;6.844;2023-04-24T04:00:22;0.40;;;0.32;;
35496;SDS011;21609;49.298;6.844;2023-04-24T04:02:48;0.50;;;0.50;;
35496;SDS011;21609;49.298;6.844;2023-04-24T04:05:13;0.30;;;0.30;;
35496;SDS011;21609;49.298;6.844;2023-04-24T04:07:39;0.50;;;0.50;;
35496;SDS011;21609;49.298;6.844;2023-04-24T04:10:04;0.40;;;0.40;;
35496;SDS011;21609;49.298;6.844;2023-04-24T04:12:31;0.25;;;0.25;;
35496;SDS011;21609;49.298;6.844;2023-04-24T04:14:57;0.30;;;0.30;;
35496;SDS011;21609;49.298;6.844;2023-04-24T04:17:23;0.70;;;0.50;;
35496;SDS011;21609;49.298;6.844;2023-04-24T04:19:49;0.38;;;0.35;;
35496;SDS011;21609;49.298;6.844;2023-04-24T04:22:14;0.30;;;0.30;;
35496;SDS011;21609;49.298;6.844;2023-04-24T04:24:40;0.40;;;0.40;;
35496;SDS011;21609;49.298;6.844;2023-04-24T04:27:05;0.40;;;0.40;;
35496;SDS011;21609;49.298;6.844;2023-04-24T04:29:31;0.40;;;0.40;;
35496;SDS011;21609;49.298;6.844;2023-04-24T04:31:58;0.30;;;0.30;;
35496;SDS011;21609;49.298;6.844;2023-04-24T04:34:23;0.50;;;0.50;;
35496;SDS011;21609;49.298;6.844;2023-04-24T04:36:49;0.40;;;0.40;;
35496;SDS011;21609;49.298;6.844;2023-04-24T04:39:15;0.30;;;0.30;;
35496;SDS011;21609;49.298;6.844;2023-04-24T04:41:41;0.45;;;0.40;;
35496;SDS011;21609;49.298;6.844;2023-04-24T04:44:07;0.30;;;0.30;;
35496;SDS011;21609;49.298;6.844;2023-04-24T04:46:33;0.40;;;0.40;;
35496;SDS011;21609;49.298;6.844;2023-04-24T04:48:59;0.40;;;0.40;;
35496;SDS011;21609;49.298;6.844;2023-04-24T04:51:26;0.30;;;0.30;;
35496;SDS011;21609;49.298;6.844;2023-04-24T04:53:52;0.45;;;0.40;;
35496;SDS011;21609;49.298;6.844;2023-04-24T04:56:17;0.45;;;0.40;;
35496;SDS011;21609;49.298;6.844;2023-04-24T04:58:43;0.30;;;0.30;;
35496;SDS011;21609;49.298;6.844;2023-04-24T05:01:09;0.50;;;0.50;;
35496;SDS011;21609;49.298;6.844;2023-04-24T05:03:34;0.38;;;0.38;;
35496;SDS011;21609;49.298;6.844;2023-04-24T05:06:00;0.43;;;0.43;;
35496;SDS011;21609;49.298;6.844;2023-04-24T05:08:27;0.73;;;0.47;;
35496;SDS011;21609;49.298;6.844;2023-04-24T05:10:52;0.55;;;0.30;;
35496;SDS011;21609;49.298;6.844;2023-04-24T05:13:18;0.60;;;0.60;;
35496;SDS011;21609;49.298;6.844;2023-04-24T05:15:44;0.40;;;0.40;;
35496;SDS011;21609;49.298;6.844;2023-04-24T05:18:10;0.85;;;0.40;;
35496;SDS011;21609;49.298;6.844;2023-04-24T05:20:35;0.30;;;0.30;;
35496;SDS011;21609;49.298;6.844;2023-04-24T05:23:01;0.32;;;0.32;;
35496;SDS011;21609;49.298;6.844;2023-04-24T05:25:26;0.63;;;0.47;;
35496;SDS011;21609;49.298;6.844;2023-04-24T05:27:52;0.70;;;0.50;;
35496;SDS011;21609;49.298;6.844;2023-04-24T05:30:18;1.58;;;0.50;;
35496;SDS011;21609;49.298;6.844;2023-04-24T05:32:44;1.10;;;0.80;;
35496;SDS011;21609;49.298;6.844;2023-04-24T05:35:10;1.35;;;0.60;;
35496;SDS011;21609;49.298;6.844;2023-04-24T05:37:36;0.70;;;0.63;;
35496;SDS011;21609;49.298;6.844;2023-04-24T05:40:02;1.98;;;0.85;;
35496;SDS011;21609;49.298;6.844;2023-04-24T05:42:30;0.93;;;0.70;;
35496;SDS011;21609;49.298;6.844;2023-04-24T05:44:55;2.35;;;0.85;;
35496;SDS011;21609;49.298;6.844;2023-04-24T05:47:21;1.17;;;0.60;;
35496;SDS011;21609;49.298;6.844;2023-04-24T05:49:47;1.63;;;1.00;;
35496;SDS011;21609;49.298;6.844;2023-04-24T05:52:13;1.50;;;0.85;;
35496;SDS011;21609;49.298;6.844;2023-04-24T05:54:38;0.70;;;0.50;;
35496;SDS011;21609;49.298;6.844;2023-04-24T05:57:04;1.27;;;0.50;;
35496;SDS011;21609;49.298;6.844;2023-04-24T05:59:32;0.55;;;0.45;;
35496;SDS011;21609;49.298;6.844;2023-04-24T06:01:59;1.17;;;0.43;;
35496;SDS011;21609;49.298;6.844;2023-04-24T06:04:25;1.48;;;0.63;;
35496;SDS011;21609;49.298;6.844;2023-04-24T06:06:50;1.27;;;0.50;;
35496;SDS011;21609;49.298;6.844;2023-04-24T06:09:20;3.00;;;0.70;;
35496;SDS011;21609;49.298;6.844;2023-04-24T06:11:49;1.58;;;0.63;;
35496;SDS011;21609;49.298;6.844;2023-04-24T06:14:17;1.90;;;0.68;;
35496;SDS011;21609;49.298;6.844;2023-04-24T06:16:43;2.83;;;0.60;;
35496;SDS011;21609;49.298;6.844;2023-04-24T06:19:09;1.40;;;0.50;;
35496;SDS011;21609;49.298;6.844;2023-04-24T06:21:34;0.70;;;0.60;;
35496;SDS011;21609;49.298;6.844;2023-04-24T06:24:00;0.60;;;0.47;;
35496;SDS011;21609;49.298;6.844;2023-04-24T06:26:26;0.55;;;0.50;;
35496;SDS011;21609;49.298;6.844;2023-04-24T06:28:51;1.23;;;0.57;;
35496;SDS011;21609;49.298;6.844;2023-04-24T06:31:18;0.95;;;0.80;;
35496;SDS011;21609;49.298;6.844;2023-04-24T06:33:45;5.85;;;0.70;;
35496;SDS011;21609;49.298;6.844;2023-04-24T06:36:11;0.70;;;0.70;;
35496;SDS011;21609;49.298;6.844;2023-04-24T06:38:37;0.70;;;0.60;;
35496;SDS011;21609;49.298;6.844;2023-04-24T06:41:03;0.93;;;0.60;;
35496;SDS011;21609;49.298;6.844;2023-04-24T06:43:30;1.27;;;0.60;;
35496;SDS011;21609;49.298;6.844;2023-04-24T06:45:59;2.05;;;0.70;;
35496;SDS011;21609;49.298;6.844;2023-04-24T06:48:25;1.13;;;0.65;;
35496;SDS011;21609;49.298;6.844;2023-04-24T06:50:51;0.63;;;0.50;;
35496;SDS011;21609;49.298;6.844;2023-04-24T06:53:17;1.33;;;0.60;;
35496;SDS011;21609;49.298;6.844;2023-04-24T06:55:43;0.60;;;0.55;;
35496;SDS011;21609;49.298;6.844;2023-04-24T06:58:10;1.02;;;0.60;;
35496;SDS011;21609;49.298;6.844;2023-04-24T07:00:36;2.88;;;0.60;;
35496;SDS011;21609;49.298;6.844;2023-04-24T07:03:02;1.20;;;0.70;;
35496;SDS011;21609;49.298;6.844;2023-04-24T07:05:30;0.82;;;0.73;;
35496;SDS011;21609;49.298;6.844;2023-04-24T07:07:55;0.77;;;0.60;;
35496;SDS011;21609;49.298;6.844;2023-04-24T07:10:23;0.80;;;0.50;;
35496;SDS011;21609;49.298;6.844;2023-04-24T07:12:49;1.05;;;0.50;;
35496;SDS011;21609;49.298;6.844;2023-04-24T07:15:15;1.40;;;0.50;;
35496;SDS011;21609;49.298;6.844;2023-04-24T07:17:42;0.50;;;0.50;;
35496;SDS011;21609;49.298;6.844;2023-04-24T07:20:10;0.50;;;0.50;;
35496;SDS011;21609;49.298;6.844;2023-04-24T07:22:39;1.23;;;0.43;;
35496;SDS011;21609;49.298;6.844;2023-04-24T07:25:05;0.93;;;0.50;;
35496;SDS011;21609;49.298;6.844;2023-04-24T07:27:31;0.63;;;0.50;;
35496;SDS011;21609;49.298;6.844;2023-04-24T07:29:57;1.45;;;0.50;;
35496;SDS011;21609;49.298;6.844;2023-04-24T07:32:23;0.50;;;0.45;;
35496;SDS011;21609;49.298;6.844;2023-04-24T07:34:48;1.50;;;0.60;;
35496;SDS011;21609;49.298;6.844;2023-04-24T07:37:14;1.00;;;0.70;;
35496;SDS011;21609;49.298;6.844;2023-04-24T07:39:39;3.58;;;0.50;;
35496;SDS011;21609;49.298;6.844;2023-04-24T07:42:05;1.05;;;0.70;;
35496;SDS011;21609;49.298;6.844;2023-04-24T07:44:31;0.73;;;0.63;;
35496;SDS011;21609;49.298;6.844;2023-04-24T07:46:57;1.60;;;0.70;;
35496;SDS011;21609;49.298;6.844;2023-04-24T07:49:22;0.85;;;0.65;;
35496;SDS011;21609;49.298;6.844;2023-04-24T07:51:48;0.57;;;0.57;;
35496;SDS011;21609;49.298;6.844;2023-04-24T07:54:14;1.42;;;0.70;;
35496;SDS011;21609;49.298;6.844;2023-04-24T07:56:40;1.35;;;0.73;;
35496;SDS011;21609;49.298;6.844;2023-04-24T07:59:08;0.63;;;0.60;;
35496;SDS011;21609;49.298;6.844;2023-04-24T08:01:35;0.60;;;0.60;;
35496;SDS011;21609;49.298;6.844;2023-04-24T08:04:00;0.43;;;0.43;;
35496;SDS011;21609;49.298;6.844;2023-04-24T08:06:26;3.85;;;0.70;;
35496;SDS011;21609;49.298;6.844;2023-04-24T08:08:57;1.73;;;0.85;;
35496;SDS011;21609;49.298;6.844;2023-04-24T08:11:22;0.50;;;0.50;;
35496;SDS011;21609;49.298;6.844;2023-04-24T08:13:48;0.70;;;0.40;;
35496;SDS011;21609;49.298;6.844;2023-04-24T08:16:14;0.57;;;0.50;;
35496;SDS011;21609;49.298;6.844;2023-04-24T08:18:39;2.75;;;0.70;;
35496;SDS011;21609;49.298;6.844;2023-04-24T08:21:05;0.80;;;0.60;;
35496;SDS011;21609;49.298;6.844;2023-04-24T08:23:30;0.60;;;0.55;;
35496;SDS011;21609;49.298;6.844;2023-04-24T08:25:56;0.63;;;0.50;;
35496;SDS011;21609;49.298;6.844;2023-04-24T08:28:22;1.95;;;0.65;;
35496;SDS011;21609;49.298;6.844;2023-04-24T08:30:48;2.25;;;0.57;;
35496;SDS011;21609;49.298;6.844;2023-04-24T08:33:19;0.47;;;0.45;;
35496;SDS011;21609;49.298;6.844;2023-04-24T08:35:47;0.65;;;0.65;;
35496;SDS011;21609;49.298;6.844;2023-04-24T08:38:12;0.82;;;0.60;;
35496;SDS011;21609;49.298;6.844;2023-04-24T08:40:38;0.75;;;0.60;;
35496;SDS011;21609;49.298;6.844;2023-04-24T08:43:04;0.50;;;0.50;;
35496;SDS011;21609;49.298;6.844;2023-04-24T08:45:30;1.15;;;0.55;;
35496;SDS011;21609;49.298;6.844;2023-04-24T08:47:57;1.40;;;0.90;;
35496;SDS011;21609;49.298;6.844;2023-04-24T08:50:23;1.55;;;0.65;;
35496;SDS011;21609;49.298;6.844;2023-04-24T08:52:50;4.78;;;1.00;;
35496;SDS011;21609;49.298;6.844;2023-04-24T08:55:18;1.52;;;1.00;;
35496;SDS011;21609;49.298;6.844;2023-04-24T08:57:45;0.70;;;0.60;;
35496;SDS011;21609;49.298;6.844;2023-04-24T09:00:15;1.75;;;0.80;;
35496;SDS011;21609;49.298;6.844;2023-04-24T09:02:41;2.45;;;0.80;;
35496;SDS011;21609;49.298;6.844;2023-04-24T09:05:08;2.92;;;1.20;;
35496;SDS011;21609;49.298;6.844;2023-04-24T09:07:35;1.77;;;0.77;;
35496;SDS011;21609;49.298;6.844;2023-04-24T09:10:03;1.35;;;0.73;;
35496;SDS011;21609;49.298;6.844;2023-04-24T09:12:30;1.48;;;0.70;;
35496;SDS011;21609;49.298;6.844;2023-04-24T09:14:56;1.08;;;0.80;;
35496;SDS011;21609;49.298;6.844;2023-04-24T09:17:21;2.53;;;0.73;;
35496;SDS011;21609;49.298;6.844;2023-04-24T09:19:48;0.65;;;0.65;;
35496;SDS011;21609;49.298;6.844;2023-04-24T09:22:13;1.00;;;0.68;;
35496;SDS011;21609;49.298;6.844;2023-04-24T09:24:40;1.50;;;0.80;;
35496;SDS011;21609;49.298;6.844;2023-04-24T09:27:06;1.08;;;0.98;;
35496;SDS011;21609;49.298;6.844;2023-04-24T09:29:32;0.60;;;0.60;;
35496;SDS011;21609;49.298;6.844;2023-04-24T09:31:58;1.27;;;0.55;;
35496;SDS011;21609;49.298;6.844;2023-04-24T09:34:24;2.33;;;1.00;;
35496;SDS011;21609;49.298;6.844;2023-04-24T09:36:51;0.98;;;0.85;;
35496;SDS011;21609;49.298;6.844;2023-04-24T09:39:17;2.78;;;1.13;;
35496;SDS011;21609;49.298;6.844;2023-04-24T09:41:54;1.50;;;0.70;;
35496;SDS011;21609;49.298;6.844;2023-04-24T09:44:23;1.15;;;0.68;;
35496;SDS011;21609;49.298;6.844;2023-04-24T09:46:50;2.75;;;0.93;;
35496;SDS011;21609;49.298;6.844;2023-04-24T09:49:24;1.25;;;0.70;;
35496;SDS011;21609;49.298;6.844;2023-04-24T09:51:52;0.73;;;0.63;;
35496;SDS011;21609;49.298;6.844;2023-04-24T09:54:27;1.13;;;0.65;;
35496;SDS011;21609;49.298;6.844;2023-04-24T09:56:54;1.42;;;1.00;;
35496;SDS011;21609;49.298;6.844;2023-04-24T09:59:21;0.93;;;0.70;;
35496;SDS011;21609;49.298;6.844;2023-04-24T10:01:47;1.80;;;0.70;;
35496;SDS011;21609;49.298;6.844;2023-04-24T10:04:18;1.33;;;1.10;;
35496;SDS011;21609;49.298;6.844;2023-04-24T10:06:45;2.22;;;1.25;;
35496;SDS011;21609;49.298;6.844;2023-04-24T10:09:11;1.67;;;1.08;;
35496;SDS011;21609;49.298;6.844;2023-04-24T10:11:41;2.05;;;0.70;;
35496;SDS011;21609;49.298;6.844;2023-04-24T10:14:09;1.87;;;1.10;;
35496;SDS011;21609;49.298;6.844;2023-04-24T10:16:36;1.35;;;0.90;;
35496;SDS011;21609;49.298;6.844;2023-04-24T10:19:04;2.25;;;1.27;;
35496;SDS011;21609;49.298;6.844;2023-04-24T10:21:30;1.77;;;1.00;;
35496;SDS011;21609;49.298;6.844;2023-04-24T10:23:56;2.53;;;0.98;;
35496;SDS011;21609;49.298;6.844;2023-04-24T10:26:22;2.15;;;0.65;;
35496;SDS011;21609;49.298;6.844;2023-04-24T10:28:48;2.05;;;0.90;;
35496;SDS011;21609;49.298;6.844;2023-04-24T10:31:14;1.40;;;0.75;;
35496;SDS011;21609;49.298;6.844;2023-04-24T10:33:43;1.20;;;0.93;;
35496;SDS011;21609;49.298;6.844;2023-04-24T10:36:10;1.52;;;0.70;;
35496;SDS011;21609;49.298;6.844;2023-04-24T10:38:39;1.10;;;1.00;;
35496;SDS011;21609;49.298;6.844;2023-04-24T10:41:07;2.30;;;1.05;;
35496;SDS011;21609;49.298;6.844;2023-04-24T10:43:35;3.20;;;0.70;;
35496;SDS011;21609;49.298;6.844;2023-04-24T10:46:04;0.82;;;0.73;;
35496;SDS011;21609;49.298;6.844;2023-04-24T10:48:31;3.00;;;0.95;;
35496;SDS011;21609;49.298;6.844;2023-04-24T10:50:57;0.77;;;0.70;;
35496;SDS011;21609;49.298;6.844;2023-04-24T10:53:24;4.28;;;0.90;;
35496;SDS011;21609;49.298;6.844;2023-04-24T10:55:58;3.13;;;1.25;;
35496;SDS011;21609;49.298;6.844;2023-04-24T10:58:49;0.85;;;0.85;;
35496;SDS011;21609;49.298;6.844;2023-04-24T11:01:29;1.10;;;1.00;;
35496;SDS011;21609;49.298;6.844;2023-04-24T11:04:00;1.25;;;1.10;;
35496;SDS011;21609;49.298;6.844;2023-04-24T11:06:28;0.95;;;0.93;;
35496;SDS011;21609;49.298;6.844;2023-04-24T11:11:37;0.80;;;0.80;;
35496;SDS011;21609;49.298;6.844;2023-04-24T11:14:06;1.40;;;0.90;;
35496;SDS011;21609;49.298;6.844;2023-04-24T11:21:45;1.00;;;0.90;;
35496;SDS011;21609;49.298;6.844;2023-04-24T11:24:29;1.00;;;1.00;;
35496;SDS011;21609;49.298;6.844;2023-04-24T11:29:21;1.00;;;0.90;;
35496;SDS011;21609;49.298;6.844;2023-04-24T11:31:47;3.20;;;1.17;;
35496;SDS011;21609;49.298;6.844;2023-04-24T11:34:16;0.90;;;0.90;;
35496;SDS011;21609;49.298;6.844;2023-04-24T11:36:43;1.40;;;1.02;;
35496;SDS011;21609;49.298;6.844;2023-04-24T11:39:10;0.98;;;0.90;;
35496;SDS011;21609;49.298;6.844;2023-04-24T11:41:36;1.67;;;0.82;;
35496;SDS011;21609;49.298;6.844;2023-04-24T11:44:02;0.80;;;0.80;;
35496;SDS011;21609;49.298;6.844;2023-04-24T11:46:30;1.33;;;1.00;;
35496;SDS011;21609;49.298;6.844;2023-04-24T11:48:57;1.35;;;0.90;;
35496;SDS011;21609;49.298;6.844;2023-04-24T11:51:24;0.85;;;0.77;;
35496;SDS011;21609;49.298;6.844;2023-04-24T11:53:51;0.90;;;0.90;;
35496;SDS011;21609;49.298;6.844;2023-04-24T11:56:18;1.20;;;0.90;;
35496;SDS011;21609;49.298;6.844;2023-04-24T11:58:44;1.08;;;0.98;;
35496;SDS011;21609;49.298;6.844;2023-04-24T12:01:11;0.90;;;0.90;;
35496;SDS011;21609;49.298;6.844;2023-04-24T12:03:36;1.48;;;0.82;;
35496;SDS011;21609;49.298;6.844;2023-04-24T12:06:05;1.10;;;1.00;;
35496;SDS011;21609;49.298;6.844;2023-04-24T12:08:34;1.15;;;0.95;;
35496;SDS011;21609;49.298;6.844;2023-04-24T12:11:01;0.90;;;0.90;;
35496;SDS011;21609;49.298;6.844;2023-04-24T12:13:27;2.13;;;1.00;;
35496;SDS011;21609;49.298;6.844;2023-04-24T12:15:52;2.13;;;1.17;;
35496;SDS011;21609;49.298;6.844;2023-04-24T12:18:18;0.95;;;0.80;;
35496;SDS011;21609;49.298;6.844;2023-04-24T12:20:47;2.65;;;1.00;;
35496;SDS011;21609;49.298;6.844;2023-04-24T12:23:12;1.25;;;1.00;;
35496;SDS011;21609;49.298;6.844;2023-04-24T12:25:38;3.22;;;0.75;;
35496;SDS011;21609;49.298;6.844;2023-04-24T12:30:33;1.75;;;1.00;;
35496;SDS011;21609;49.298;6.844;2023-04-24T12:33:03;1.10;;;0.90;;
35496;SDS011;21609;49.298;6.844;2023-04-24T12:35:29;1.10;;;1.00;;
35496;SDS011;21609;49.298;6.844;2023-04-24T12:40:33;0.93;;;0.90;;
35496;SDS011;21609;49.298;6.844;2023-04-24T12:42:58;1.67;;;0.85;;
35496;SDS011;21609;49.298;6.844;2023-04-24T12:45:24;2.33;;;1.08;;
35496;SDS011;21609;49.298;6.844;2023-04-24T12:47:50;1.50;;;0.85;;
35496;SDS011;21609;49.298;6.844;2023-04-24T12:50:16;0.90;;;0.85;;
35496;SDS011;21609;49.298;6.844;2023-04-24T12:52:42;1.05;;;0.95;;
35496;SDS011;21609;49.298;6.844;2023-04-24T12:55:08;1.25;;;1.10;;
35496;SDS011;21609;49.298;6.844;2023-04-24T12:57:34;1.70;;;0.70;;
35496;SDS011;21609;49.298;6.844;2023-04-24T13:00:02;3.17;;;1.23;;
35496;SDS011;21609;49.298;6.844;2023-04-24T13:02:29;3.10;;;1.92;;
35496;SDS011;21609;49.298;6.844;2023-04-24T13:04:56;1.50;;;1.40;;
35496;SDS011;21609;49.298;6.844;2023-04-24T13:07:23;1.95;;;1.50;;
35496;SDS011;21609;49.298;6.844;2023-04-24T13:09:49;3.65;;;1.70;;
35496;SDS011;21609;49.298;6.844;2023-04-24T13:12:15;1.70;;;1.60;;
35496;SDS011;21609;49.298;6.844;2023-04-24T13:14:41;1.98;;;1.88;;
35496;SDS011;21609;49.298;6.844;2023-04-24T13:17:07;1.77;;;1.42;;
35496;SDS011;21609;49.298;6.844;2023-04-24T13:19:37;1.63;;;1.40;;
35496;SDS011;21609;49.298;6.844;2023-04-24T13:22:03;2.00;;;1.55;;
35496;SDS011;21609;49.298;6.844;2023-04-24T13:24:29;2.88;;;1.55;;
35496;SDS011;21609;49.298;6.844;2023-04-24T13:26:56;1.27;;;1.17;;
35496;SDS011;21609;49.298;6.844;2023-04-24T13:29:22;3.28;;;1.30;;
35496;SDS011;21609;49.298;6.844;2023-04-24T13:31:49;2.08;;;1.58;;
35496;SDS011;21609;49.298;6.844;2023-04-24T13:34:15;2.58;;;0.93;;
35496;SDS011;21609;49.298;6.844;2023-04-24T13:36:41;2.53;;;1.30;;
35496;SDS011;21609;49.298;6.844;2023-04-24T13:39:07;2.72;;;1.38;;
35496;SDS011;21609;49.298;6.844;2023-04-24T13:41:33;2.30;;;1.45;;
35496;SDS011;21609;49.298;6.844;2023-04-24T13:43:59;0.90;;;0.90;;
35496;SDS011;21609;49.298;6.844;2023-04-24T13:46:25;1.40;;;1.00;;
35496;SDS011;21609;49.298;6.844;2023-04-24T13:48:50;1.30;;;1.13;;
35496;SDS011;21609;49.298;6.844;2023-04-24T13:51:16;1.00;;;0.90;;
35496;SDS011;21609;49.298;6.844;2023-04-24T13:53:42;1.42;;;1.00;;
35496;SDS011;21609;49.298;6.844;2023-04-24T13:56:07;3.60;;;1.08;;
35496;SDS011;21609;49.298;6.844;2023-04-24T13:58:34;1.13;;;0.95;;
35496;SDS011;21609;49.298;6.844;2023-04-24T14:01:01;2.08;;;1.42;;
35496;SDS011;21609;49.298;6.844;2023-04-24T14:03:28;1.13;;;0.90;;
35496;SDS011;21609;49.298;6.844;2023-04-24T14:05:53;1.10;;;1.00;;
35496;SDS011;21609;49.298;6.844;2023-04-24T14:08:19;1.25;;;1.15;;
35496;SDS011;21609;49.298;6.844;2023-04-24T14:10:45;3.33;;;1.17;;
35496;SDS011;21609;49.298;6.844;2023-04-24T14:13:10;4.18;;;1.00;;
35496;SDS011;21609;49.298;6.844;2023-04-24T14:15:36;4.53;;;1.38;;
35496;SDS011;21609;49.298;6.844;2023-04-24T14:18:02;2.70;;;1.10;;
35496;SDS011;21609;49.298;6.844;2023-04-24T14:20:28;1.30;;;1.20;;
35496;SDS011;21609;49.298;6.844;2023-04-24T14:22:54;1.02;;;0.90;;
35496;SDS011;21609;49.298;6.844;2023-04-24T14:25:19;2.13;;;1.20;;
35496;SDS011;21609;49.298;6.844;2023-04-24T14:27:47;4.15;;;1.27;;
35496;SDS011;21609;49.298;6.844;2023-04-24T14:30:13;2.65;;;1.02;;
35496;SDS011;21609;49.298;6.844;2023-04-24T14:32:40;1.35;;;1.20;;
35496;SDS011;21609;49.298;6.844;2023-04-24T14:35:06;1.52;;;1.30;;
35496;SDS011;21609;49.298;6.844;2023-04-24T14:37:32;1.23;;;1.05;;
35496;SDS011;21609;49.298;6.844;2023-04-24T14:39:57;1.75;;;1.00;;
35496;SDS011;21609;49.298;6.844;2023-04-24T14:42:23;2.10;;;1.10;;
35496;SDS011;21609;49.298;6.844;2023-04-24T14:44:49;1.52;;;1.17;;
35496;SDS011;21609;49.298;6.844;2023-04-24T14:47:16;1.30;;;1.00;;
35496;SDS011;21609;49.298;6.844;2023-04-24T14:52:12;0.95;;;0.90;;
35496;SDS011;21609;49.298;6.844;2023-04-24T14:54:38;9.13;;;1.52;;
35496;SDS011;21609;49.298;6.844;2023-04-24T14:57:03;2.15;;;0.98;;
35496;SDS011;21609;49.298;6.844;2023-04-24T14:59:29;2.25;;;1.35;;
35496;SDS011;21609;49.298;6.844;2023-04-24T15:01:56;2.75;;;1.85;;